Nearby METAR Reports

 

KTCM - Tacoma,Washington,
Updated: 06/19/2018 12:58pm
Partly cloudy
Partly cloudy
 Wind from NW
Wind: NW 3 mph , 6 km/h
Temperature: 75°F , 24°C
Dew Point: 61°F , 16°C
Humidity: 61%
Barometer: 30.05 inHg , 1017.6 hPa
Clouds: Partly cloudy
Visibility: 10 miles , 16 km
Cloud details: Partly cloudy 17000 ft
2018/06/19 19:58 KTCM 191958Z AUTO 31003KT 10SM SCT170 24/16 A3005 RMK AO2 SLP178 T02360164 $
KSEA - Seattle,Washington,
Updated: 06/19/2018 12:53pm
Partly cloudy
Partly cloudy
 Wind from SSW
Wind: SSW 9 mph , 15 km/h
Temperature: 75°F , 24°C
Dew Point: 54°F , 12°C
Humidity: 47%
Barometer: 30.06 inHg , 1017.9 hPa
Clouds: Partly cloudy
Visibility: 10 miles , 16 km
Cloud details: Few Clouds 5000 ft
Partly cloudy 20000 ft
2018/06/19 19:53 KSEA 191953Z 20008KT 160V230 10SM FEW050 SCT200 24/12 A3006 RMK AO2 SLP182 T02440122
 
KOLM - Olympia,Washington,
Updated: 06/19/2018 12:54pm
Clear
Clear
 Wind from S
Wind: S 6 mph , 9 km/h
Temperature: 75°F , 24°C
Dew Point: 50°F , 10°C
Humidity: 41%
Barometer: 30.05 inHg , 1017.6 hPa
Clouds: Clear
Visibility: 10 miles , 16 km
2018/06/19 19:54 KOLM 191954Z 19005KT 10SM CLR 24/10 A3005 RMK AO2 SLP173 T02440100 $
KHQM - Hoquiam,Washington,
Updated: 06/19/2018 12:53pm
Clear
Clear
 Wind from WSW
Wind: WSW 10 mph , 17 km/h
Temperature: 64°F , 18°C
Dew Point: 55°F , 13°C
Humidity: 73%
Barometer: 30.09 inHg , 1019 hPa
Clouds: Clear
Visibility: 8 miles , 13 km
2018/06/19 19:53 KHQM 191953Z AUTO 25009KT 8SM CLR 18/13 A3009 RMK AO2 SLP192 T01780133
 
KGEG - Spokane,Washington,
Updated: 06/19/2018 12:53pm
Mostly cloudy
Mostly cloudy
 Wind from E
Wind: E 3 mph , 6 km/h
Temperature: 75°F , 24°C
Dew Point: 46°F , 8°C
Humidity: 36%
Barometer: 30.11 inHg , 1019.6 hPa
Clouds: Mostly cloudy
Visibility: 10 miles , 16 km
Cloud details: Partly cloudy 5500 ft
Mostly cloudy 20000 ft
2018/06/19 19:53 KGEG 191953Z 10003KT 10SM SCT055 BKN200 24/08 A3011 RMK AO2 SLP183 T02440078
KBLI - Bellingham,Washington,
Updated: 06/19/2018 12:53pm
Clear
Clear
 Wind from S
Wind: S 8 mph , 13 km/h
Temperature: 72°F , 22°C
Dew Point: 55°F , 13°C
Humidity: 57%
Barometer: 30.04 inHg , 1017.3 hPa
Clouds: Clear
Visibility: 10 miles , 16 km
2018/06/19 19:53 KBLI 191953Z 18007KT 10SM CLR 22/13 A3004 RMK AO2 SLP176 T02170133